Airfield :
LOGIN :

Register | Disclaimer

   EN    FR    IT 

 










Legend :    VFR   Marginal VFR   IFR   Intensive IFR   Very Intensive IFR
Visi :
Ceiling :
>= 8 km
>= 3000ft
5 to 8 km
1000 to 3000 ft
1500m to 5 km
500 to 1000 ft
800 to 1500m
200 to 500 ft
< 800m
< 200 ft
Symbols :   Thunderstorms  Fog  Heavy snow  Heavy precipitations  Wind > 20 kt
SIGMETs :     Misc.  Thunderstorms  Icing  Turbulence  Mountain Waves  Volcanic Ashes






- Airport Elevation : 512 ft
- IATA code : URO


LFOP - Rouen Vallée de Seine

CURRENT METAR :
  • 021800Z AUTO 28008KT 250V320 9999 BKN038 BKN047 BKN056 18/10 Q1016 NOSIG

EXPIRED METARs :
  • 021730Z AUTO 30011KT 250V320 9999 SCT043 BKN050 BKN066 18/09 Q1016 NOSIG
  • 021700Z AUTO 29011KT 250V330 9999 FEW043 19/10 Q1016 NOSIG
  • 021630Z AUTO 29010KT 260V320 9999 BKN042 BKN068 19/10 Q1016 NOSIG
  • 021600Z AUTO 27012KT 240V300 9999 FEW033 BKN039 BKN046 19/10 Q1016 NOSIG
  • 021530Z AUTO 26009KT 220V300 9999 FEW035 SCT062 BKN074 19/12 Q1016 NOSIG

TAF TAF LFOP
Valid from the 02 at 18:00 until the 03 at 18:00 UTC


021700Z 0218/0318 25012KT 9999 SCT030
BECMG 0222/0301 BKN007
BECMG 0307/0310 SCT030
ATIS : +33 2 35 80 80 34
Met : +33 2 32 86 52 80



MET'MAP, your aeronautical weather chart ! - Copyright ORBIFLY December 2007 - Disclaimer

ORBIFLY MET'MAP TEAM :

Programming & Development : Alexandra Zaïnal
Concept & original design : Baudouin d'Aumeries
Assistance for programming : Marc-Olivier Méhu
Technical & hardware support : Manuel Goepfert

Contact : metmap@orbifly.com




SOURCES & CREDITS :

   NOAA